Time;durP1;ratioP1;P1;durP2;ratioP2;P2;SDS_P1;SDS_P2;PMS_P1;PMS_P2;Temp;Humidity;BMP_temperature;BMP_pressure;BME280_temperature;BME280_humidity;BME280_pressure;Samples;Min_cycle;Max_cycle;Signal;HPM_P1;HPM_P2
2021/05/10 00:00:38;;;;;;;3.50;2.25;;;;;;;11.98;42.00;100329.97;3503477;28;20127;-72
2021/05/10 00:02:19;;;;;;;2.97;2.20;;;;;;;11.98;42.11;100329.97;3501120;28;20449;-72
2021/05/10 00:04:01;;;;;;;2.50;1.98;;;;;;;11.99;42.05;100323.59;3495951;28;20033;-71
2021/05/10 00:05:44;;;;;;;3.35;2.00;;;;;;;12.00;42.15;100327.91;3495927;28;20032;-70
2021/05/10 00:07:25;;;;;;;5.55;3.63;;;;;;;11.99;42.10;100329.78;3502362;28;20036;-70
2021/05/10 00:09:06;;;;;;;5.32;2.08;;;;;;;11.96;42.13;100334.69;3503009;28;20052;-71
2021/05/10 00:10:49;;;;;;;4.88;1.88;;;;;;;11.98;42.16;100346.00;3493700;28;20147;-71
2021/05/10 00:12:32;;;;;;;4.28;2.15;;;;;;;11.93;42.38;100330.53;3495338;28;20037;-70
2021/05/10 00:14:13;;;;;;;2.63;1.77;;;;;;;11.99;42.13;100337.78;3496822;28;20564;-71
2021/05/10 00:15:56;;;;;;;3.25;2.05;;;;;;;12.02;42.18;100343.78;3503604;28;20042;-70
2021/05/10 00:17:37;;;;;;;4.38;2.10;;;;;;;12.03;42.31;100342.75;3504786;28;20119;-71
2021/05/10 00:19:18;;;;;;;6.82;1.98;;;;;;;12.04;42.30;100345.25;3510832;28;20032;-71
2021/05/10 00:21:00;;;;;;;8.13;1.95;;;;;;;12.04;42.02;100350.59;3498387;28;20081;-71
2021/05/10 00:22:41;;;;;;;3.45;2.17;;;;;;;12.03;42.19;100343.59;3497184;28;20062;-72
2021/05/10 00:24:22;;;;;;;2.13;1.67;;;;;;;12.05;42.00;100340.72;3506300;28;20055;-71
2021/05/10 00:26:03;;;;;;;5.65;1.95;;;;;;;12.07;41.93;100350.22;3503248;28;20498;-71
2021/05/10 00:27:45;;;;;;;4.03;2.15;;;;;;;12.06;41.75;100345.88;3508726;28;20411;-71
2021/05/10 00:29:27;;;;;;;;;;;;;;;12.19;41.89;100347.88;3491394;28;20044;-71
2021/05/10 00:31:08;;;;;;;4.53;1.67;;;;;;;12.09;41.81;100342.84;3494656;28;19931;-71
2021/05/10 00:32:51;;;;;;;3.35;2.20;;;;;;;12.04;41.60;100345.25;3498209;28;20043;-73
2021/05/10 00:34:32;;;;;;;3.25;1.65;;;;;;;12.01;41.77;100345.63;3505346;28;20036;-70
2021/05/10 00:36:14;;;;;;;2.65;1.85;;;;;;;11.99;41.51;100355.66;3508791;28;20040;-70
2021/05/10 00:37:55;;;;;;;2.42;1.73;;;;;;;11.94;41.56;100355.41;3501320;28;20511;-70
2021/05/10 00:39:36;;;;;;;3.22;2.13;;;;;;;11.95;41.81;100357.91;3495968;28;20130;-71
2021/05/10 00:41:17;;;;;;;2.53;1.80;;;;;;;11.96;41.71;100356.88;3496734;28;20043;-71
2021/05/10 00:42:59;;;;;;;2.95;1.90;;;;;;;11.95;41.72;100354.38;3495432;28;20127;-71
2021/05/10 00:44:40;;;;;;;3.60;1.63;;;;;;;11.97;41.60;100365.69;3496400;28;20039;-71
2021/05/10 00:46:20;;;;;;;2.38;1.73;;;;;;;11.99;41.70;100371.69;3498261;28;20055;-71
2021/05/10 00:48:02;;;;;;;2.28;1.75;;;;;;;11.96;41.48;100362.22;3509229;28;20036;-71
2021/05/10 00:49:43;;;;;;;;;;;;;;;12.09;41.57;100366.88;3502112;28;20047;-71
2021/05/10 00:51:24;;;;;;;4.18;1.92;;;;;;;11.98;41.37;100362.84;3496441;28;19920;-69
2021/05/10 00:53:04;;;;;;;2.92;1.80;;;;;;;11.92;41.14;100360.91;3497703;28;20072;-71
2021/05/10 00:54:45;;;;;;;1.92;1.50;;;;;;;11.91;41.32;100369.94;3496947;28;20079;-71
2021/05/10 00:56:26;;;;;;;2.20;1.77;;;;;;;11.96;41.58;100377.41;3497305;28;20040;-71
2021/05/10 00:58:07;;;;;;;2.15;1.92;;;;;;;11.99;41.52;100375.19;3503650;28;20130;-72
2021/05/10 00:59:50;;;;;;;2.95;1.70;;;;;;;11.98;41.46;100378.88;3493119;28;20089;-71
2021/05/10 01:01:31;;;;;;;3.50;1.70;;;;;;;11.99;41.17;100382.38;3495847;28;20071;-71
2021/05/10 01:03:12;;;;;;;3.42;1.80;;;;;;;11.91;41.32;100375.28;3509294;28;20058;-71
2021/05/10 01:04:53;;;;;;;2.03;1.57;;;;;;;11.96;40.97;100390.78;3499456;28;20067;-72
2021/05/10 01:06:33;;;;;;;4.55;1.60;;;;;;;11.98;41.05;100384.22;3496251;28;20386;-73
2021/05/10 01:08:14;;;;;;;4.95;1.50;;;;;;;12.01;41.22;100388.38;3497330;28;20123;-72
2021/05/10 01:09:55;;;;;;;3.50;1.88;;;;;;;12.03;41.05;100391.69;3498489;28;20048;-71
2021/05/10 01:11:36;;;;;;;2.25;1.48;;;;;;;12.03;40.94;100394.38;3494845;28;20036;-71
2021/05/10 01:13:18;;;;;;;3.63;1.80;;;;;;;12.09;41.38;100393.59;3502616;28;20433;-72
2021/05/10 01:14:59;;;;;;;4.40;2.00;;;;;;;12.15;41.28;100400.03;3495197;28;20123;-71
2021/05/10 01:16:40;;;;;;;4.30;1.98;;;;;;;12.18;40.82;100403.19;3503280;28;20048;-71
2021/05/10 01:18:22;;;;;;;3.35;2.20;;;;;;;12.18;40.74;100405.84;3507710;28;20041;-72
2021/05/10 01:20:10;;;;;;;2.00;1.33;;;;;;;12.19;40.56;100404.00;3496223;28;20043;-71
2021/05/10 01:21:51;;;;;;;3.85;2.95;;;;;;;12.18;40.34;100416.53;3495480;28;20044;-71
2021/05/10 01:23:32;;;;;;;7.72;2.28;;;;;;;12.10;40.26;100400.59;3501712;28;20530;-72
2021/05/10 01:25:26;;;;;;;4.30;1.88;;;;;;;12.15;40.33;100416.91;3498067;28;20047;-71
2021/05/10 01:27:07;;;;;;;1.60;1.50;;;;;;;12.14;40.37;100415.25;3501207;28;20123;-70
2021/05/10 01:28:48;;;;;;;3.15;1.95;;;;;;;12.14;40.07;100423.25;3495387;28;20045;-72
2021/05/10 01:30:35;;;;;;;3.95;1.85;;;;;;;12.12;39.92;100424.47;3503950;28;20565;-71
2021/05/10 01:32:16;;;;;;;2.22;2.00;;;;;;;12.10;40.22;100431.84;3501061;28;20044;-73
2021/05/10 01:33:57;;;;;;;1.92;1.65;;;;;;;12.09;39.95;100428.34;3508496;28;20063;-70
2021/05/10 01:35:41;;;;;;;2.63;1.75;;;;;;;12.08;40.04;100431.19;3504663;28;20083;-70
2021/05/10 01:37:21;;;;;;;3.58;1.95;;;;;;;12.06;39.82;100438.59;3499668;28;20561;-69
2021/05/10 01:39:03;;;;;;;2.55;2.10;;;;;;;12.02;39.76;100432.75;3496032;28;20127;-71
2021/05/10 01:40:47;;;;;;;2.42;1.98;;;;;;;12.00;39.88;100435.63;3496528;28;20131;-71
2021/05/10 01:42:28;;;;;;;3.15;1.83;;;;;;;11.96;39.53;100438.84;3497287;28;20035;-71
2021/05/10 01:44:09;;;;;;;2.95;1.52;;;;;;;11.96;39.69;100444.19;3504495;28;20130;-70
2021/05/10 01:45:50;;;;;;;3.50;2.05;;;;;;;11.94;39.84;100443.56;3502121;28;20065;-70
2021/05/10 01:47:31;;;;;;;5.00;1.73;;;;;;;11.94;39.78;100440.88;3507242;28;20043;-71
2021/05/10 01:49:11;;;;;;;1.93;1.77;;;;;;;11.94;39.75;100452.38;3497068;28;20577;-70
2021/05/10 01:50:52;;;;;;;2.72;1.42;;;;;;;11.92;39.51;100443.72;3500604;28;20036;-70
2021/05/10 01:52:33;;;;;;;1.55;1.42;;;;;;;11.92;39.45;100443.72;3499569;28;20036;-70
2021/05/10 01:54:14;;;;;;;1.60;1.40;;;;;;;11.91;39.94;100447.41;3497931;28;20044;-70
2021/05/10 01:55:54;;;;;;;1.70;1.42;;;;;;;11.96;39.71;100444.19;3506668;28;20123;-70
2021/05/10 01:57:35;;;;;;;3.55;1.50;;;;;;;11.96;39.83;100452.22;3505789;28;20036;-71
2021/05/10 01:59:16;;;;;;;2.73;2.00;;;;;;;11.99;39.59;100455.34;3506546;28;20073;-70
2021/05/10 02:00:57;;;;;;;2.35;1.20;;;;;;;12.01;39.53;100460.50;3503271;28;20762;-72
2021/05/10 02:02:38;;;;;;;2.42;1.40;;;;;;;12.03;39.56;100454.97;3506332;28;20048;-70
2021/05/10 02:04:19;;;;;;;2.97;1.85;;;;;;;12.00;39.36;100454.34;3509211;28;20514;-70
2021/05/10 02:06:01;;;;;;;5.90;1.75;;;;;;;12.03;39.19;100466.50;3498345;28;20043;-71
2021/05/10 02:08:03;;;;;;;4.22;1.40;;;;;;;12.10;39.39;100462.06;3504009;28;20036;-71
2021/05/10 02:09:43;;;;;;;1.65;1.45;;;;;;;12.06;39.44;100465.31;3498459;28;20123;-70
2021/05/10 02:11:24;;;;;;;2.78;1.40;;;;;;;12.06;39.60;100455.44;3497509;28;20192;-70
2021/05/10 02:13:08;;;;;;;1.25;1.13;;;;;;;12.12;39.44;100467.22;3498267;28;20072;-71
2021/05/10 02:14:48;;;;;;;2.10;1.50;;;;;;;12.15;39.86;100472.19;3502473;28;20039;-70
2021/05/10 02:16:29;;;;;;;3.83;1.70;;;;;;;12.15;39.42;100462.31;3498663;28;20031;-70
2021/05/10 02:18:11;;;;;;;4.13;1.67;;;;;;;12.21;39.34;100485.66;3504717;28;20537;-71
2021/05/10 02:19:52;;;;;;;5.57;1.92;;;;;;;12.25;39.41;100470.06;3505229;28;20043;-70
2021/05/10 02:21:34;;;;;;;3.08;1.20;;;;;;;12.28;39.24;100480.38;3498192;28;20495;-69
2021/05/10 02:23:17;;;;;;;2.83;1.50;;;;;;;12.30;39.23;100472.19;3499277;28;20075;-71
2021/05/10 02:24:57;;;;;;;1.90;1.40;;;;;;;12.32;39.52;100476.31;3502741;28;20515;-71
2021/05/10 02:26:39;;;;;;;2.35;1.50;;;;;;;12.37;39.54;100479.28;3508925;28;20036;-70
2021/05/10 02:28:25;;;;;;;2.70;1.50;;;;;;;12.39;39.20;100479.06;3506504;28;20048;-71
2021/05/10 02:30:06;;;;;;;2.03;1.40;;;;;;;12.39;38.88;100481.75;3500785;28;20040;-70
2021/05/10 02:31:47;;;;;;;2.60;1.73;;;;;;;12.39;38.93;100477.25;3507496;28;20088;-70
2021/05/10 02:33:30;;;;;;;4.30;1.40;;;;;;;12.45;38.80;100483.69;3500394;28;20037;-70
2021/05/10 02:35:11;;;;;;;2.53;1.60;;;;;;;12.49;38.65;100487.63;3497708;28;20493;-71
2021/05/10 02:36:52;;;;;;;2.55;1.55;;;;;;;12.49;38.44;100489.47;3498055;28;20043;-70
2021/05/10 02:38:33;;;;;;;1.42;1.20;;;;;;;12.52;38.65;100495.28;3509601;28;20410;-71
2021/05/10 02:40:14;;;;;;;2.28;1.40;;;;;;;12.59;38.47;100498.84;3499277;28;20518;-71
2021/05/10 02:41:55;;;;;;;3.55;1.50;;;;;;;12.69;38.69;100492.38;3503201;28;20040;-70
2021/05/10 02:43:36;;;;;;;2.80;1.50;;;;;;;12.72;38.22;100497.34;3505077;28;20068;-70
2021/05/10 02:45:17;;;;;;;2.45;1.38;;;;;;;12.71;38.18;100496.53;3505872;28;20036;-70
2021/05/10 02:46:58;;;;;;;2.65;1.30;;;;;;;12.74;37.82;100506.03;3499404;28;20036;-72
2021/05/10 02:48:40;;;;;;;3.80;1.60;;;;;;;12.72;37.73;100511.56;3499520;28;20043;-71
2021/05/10 02:50:23;;;;;;;3.17;1.48;;;;;;;12.72;37.72;100502.69;3497362;28;20048;-70
2021/05/10 02:52:04;;;;;;;3.53;1.27;;;;;;;12.85;38.44;100514.38;3498657;28;20037;-70
2021/05/10 02:53:45;;;;;;;1.85;1.15;;;;;;;12.97;38.06;100516.56;3497882;28;20132;-71
2021/05/10 02:55:25;;;;;;;1.65;1.45;;;;;;;12.94;37.70;100509.75;3502596;28;20036;-71
2021/05/10 02:57:06;;;;;;;1.20;1.10;;;;;;;12.98;37.49;100528.91;3497560;28;20036;-70
2021/05/10 02:58:48;;;;;;;2.22;1.25;;;;;;;12.95;37.44;100524.78;3503235;28;20097;-70
2021/05/10 03:00:29;;;;;;;2.22;1.33;;;;;;;12.96;37.57;100528.28;3503059;28;20031;-71
2021/05/10 03:02:10;;;;;;;2.00;1.45;;;;;;;12.96;37.28;100528.28;3504080;28;20398;-70
2021/05/10 03:03:51;;;;;;;1.33;1.23;;;;;;;13.00;37.52;100538.41;3501757;28;20047;-71
2021/05/10 03:05:31;;;;;;;2.42;1.42;;;;;;;13.03;37.38;100535.34;3506586;28;20098;-70
2021/05/10 03:07:12;;;;;;;1.52;1.35;;;;;;;13.07;37.42;100536.66;3498280;28;20045;-72
2021/05/10 03:08:53;;;;;;;2.33;1.52;;;;;;;13.12;37.10;100543.28;3497099;28;20087;-71
2021/05/10 03:10:33;;;;;;;1.70;1.58;;;;;;;13.09;37.04;100542.63;3501559;28;20047;-71
2021/05/10 03:12:14;;;;;;;1.58;1.48;;;;;;;13.09;36.74;100537.28;3502885;28;20071;-71
2021/05/10 03:13:55;;;;;;;2.83;1.50;;;;;;;13.09;36.85;100548.00;3501528;28;20044;-71
2021/05/10 03:15:36;;;;;;;3.42;1.40;;;;;;;13.15;37.56;100551.75;3513607;28;20070;-72
2021/05/10 03:17:16;;;;;;;1.05;0.98;;;;;;;13.16;36.93;100552.56;3508778;28;20036;-72
2021/05/10 03:18:57;;;;;;;1.88;1.33;;;;;;;13.19;36.54;100558.41;3505987;28;20139;-72
2021/05/10 03:20:38;;;;;;;2.30;1.60;;;;;;;13.23;36.82;100564.19;3496841;28;20454;-70
2021/05/10 03:22:18;;;;;;;1.42;1.30;;;;;;;13.23;36.64;100553.47;3501208;28;20032;-71
2021/05/10 03:23:59;;;;;;;2.95;1.30;;;;;;;13.28;36.52;100569.84;3497170;28;20473;-71
2021/05/10 03:25:40;;;;;;;2.42;1.30;;;;;;;13.27;36.30;100571.69;3504444;28;20028;-72
2021/05/10 03:27:20;;;;;;;2.58;1.45;;;;;;;13.29;36.16;100571.47;3495693;28;20029;-71
2021/05/10 03:29:02;;;;;;;3.65;1.25;;;;;;;13.31;36.21;100580.16;3504769;28;20072;-71
2021/05/10 03:30:43;;;;;;;1.60;1.45;;;;;;;13.35;36.21;100578.78;3502860;28;20054;-71
2021/05/10 03:32:24;;;;;;;3.67;1.10;;;;;;;13.34;36.22;100590.47;3501751;28;20048;-70
2021/05/10 03:34:05;;;;;;;2.72;1.25;;;;;;;13.33;36.07;100582.66;3498983;28;20718;-71
2021/05/10 03:35:45;;;;;;;5.40;1.38;;;;;;;13.37;36.10;100587.44;3497682;28;20527;-69
2021/05/10 03:37:26;;;;;;;3.20;1.60;;;;;;;13.38;36.11;100594.44;3497901;28;20546;-71
2021/05/10 03:39:07;;;;;;;2.45;1.52;;;;;;;13.42;35.77;100594.88;3497406;28;20037;-71
2021/05/10 03:40:47;;;;;;;2.72;1.17;;;;;;;13.46;35.88;100599.66;3509517;28;20054;-71
2021/05/10 03:42:28;;;;;;;2.05;1.35;;;;;;;13.51;35.97;100596.44;3498327;28;20048;-70
2021/05/10 03:44:09;;;;;;;3.00;1.23;;;;;;;13.58;35.93;100596.47;3496480;28;20052;-71
2021/05/10 03:45:49;;;;;;;2.90;1.30;;;;;;;13.62;35.90;100597.75;3503663;28;20174;-69
2021/05/10 03:47:39;;;;;;;2.15;1.20;;;;;;;13.65;35.70;100597.38;3505307;28;20066;-70
2021/05/10 03:49:20;;;;;;;2.85;1.73;;;;;;;13.67;35.45;100603.38;3499233;28;20130;-70
2021/05/10 03:51:00;;;;;;;3.95;1.35;;;;;;;13.67;35.52;100608.72;3496827;28;20055;-71
2021/05/10 03:52:42;;;;;;;5.32;1.52;;;;;;;13.65;35.63;100606.22;3497669;28;20090;-71
2021/05/10 03:54:22;;;;;;;11.50;5.10;;;;;;;13.65;35.52;100602.72;3499750;28;20040;-71
2021/05/10 03:56:03;;;;;;;8.70;5.60;;;;;;;13.66;35.29;100607.09;3501464;28;20040;-72
2021/05/10 03:57:44;;;;;;;6.38;3.20;;;;;;;13.63;35.40;100605.63;3499145;28;20126;-70
2021/05/10 03:59:26;;;;;;;4.47;2.17;;;;;;;13.67;35.14;100608.72;3516128;28;20034;-72
2021/05/10 04:01:09;;;;;;;2.08;1.42;;;;;;;13.70;35.18;100613.69;3505799;28;20388;-71
2021/05/10 04:02:49;;;;;;;2.75;1.25;;;;;;;13.71;35.28;100610.00;3500086;28;20037;-72
2021/05/10 04:04:44;;;;;;;1.38;1.10;;;;;;;13.80;35.37;100610.69;3512551;27;20032;-71
2021/05/10 04:08:24;;;;;;;3.80;1.23;;;;;;;13.99;35.17;100615.38;3517699;28;20035;-70
2021/05/10 04:14:05;;;;;;;4.25;1.10;;;;;;;14.32;34.75;100612.13;3495865;28;20068;-70
2021/05/10 04:15:46;;;;;;;1.10;0.98;;;;;;;14.40;34.92;100612.81;3504044;28;20044;-71
2021/05/10 04:17:27;;;;;;;0.90;0.80;;;;;;;14.53;35.31;100608.56;3484655;28;20041;-71
2021/05/10 04:19:07;;;;;;;2.55;0.80;;;;;;;14.64;35.31;100621.44;3498762;28;20052;-71
2021/05/10 04:20:49;;;;;;;2.28;1.02;;;;;;;14.68;34.79;100616.50;3496369;28;20523;-70
2021/05/10 04:22:30;;;;;;;2.67;0.95;;;;;;;14.69;34.30;100621.69;3500778;28;20032;-71
2021/05/10 04:24:11;;;;;;;1.05;0.95;;;;;;;14.76;34.32;100629.75;3503795;28;20059;-71
2021/05/10 04:25:52;;;;;;;1.50;1.00;;;;;;;14.82;34.42;100621.72;3509370;28;20388;-70
2021/05/10 04:27:33;;;;;;;1.13;0.90;;;;;;;14.91;34.29;100622.38;3506958;28;20059;-71
2021/05/10 04:29:14;;;;;;;4.43;1.00;;;;;;;14.97;33.90;100631.47;3498770;28;20514;-71
2021/05/10 04:30:56;;;;;;;12.43;2.15;;;;;;;14.97;33.97;100626.97;3495596;28;20420;-69
2021/05/10 04:32:37;;;;;;;3.42;1.20;;;;;;;15.05;34.30;100626.78;3504729;28;20092;-70
2021/05/10 04:34:17;;;;;;;1.00;0.82;;;;;;;15.11;34.06;100622.47;3502375;28;20040;-70
2021/05/10 04:35:59;;;;;;;1.23;0.80;;;;;;;15.18;33.76;100628.69;3497736;28;20040;-70
2021/05/10 04:37:40;;;;;;;1.83;1.20;;;;;;;15.22;33.86;100624.56;3498015;28;20063;-71
2021/05/10 04:39:21;;;;;;;1.57;1.00;;;;;;;15.30;33.48;100622.72;3499885;28;20040;-70
2021/05/10 04:41:03;;;;;;;5.40;0.93;;;;;;;15.38;33.50;100623.34;3509065;28;20046;-70
2021/05/10 04:42:44;;;;;;;1.30;0.90;;;;;;;15.47;33.31;100624.84;3504632;28;20075;-70
2021/05/10 04:44:24;;;;;;;0.93;0.75;;;;;;;15.57;33.81;100627.13;3506034;28;20451;-71
2021/05/10 04:46:05;;;;;;;1.00;0.95;;;;;;;15.60;33.46;100629.41;3507026;28;20063;-71
2021/05/10 04:47:46;;;;;;;1.25;0.80;;;;;;;15.66;33.48;100625.88;3504481;28;20036;-71
2021/05/10 04:49:28;;;;;;;1.38;0.85;;;;;;;15.73;32.92;100633.19;3502004;28;20067;-70
2021/05/10 04:51:08;;;;;;;1.50;0.90;;;;;;;15.76;32.90;100630.91;3501139;28;20156;-70
2021/05/10 04:52:49;;;;;;;1.60;1.00;;;;;;;15.82;32.99;100624.69;3496953;28;20580;-70
2021/05/10 04:54:30;;;;;;;1.65;0.95;;;;;;;15.92;32.80;100618.91;3508614;28;20032;-70
2021/05/10 04:56:10;;;;;;;1.60;0.70;;;;;;;16.02;32.34;100624.72;3499588;28;20047;-69
2021/05/10 04:57:51;;;;;;;0.88;0.88;;;;;;;16.06;32.36;100630.50;3517309;28;20040;-71
2021/05/10 04:59:32;;;;;;;1.83;0.90;;;;;;;16.03;32.04;100634.44;3507425;28;20046;-70
2021/05/10 05:01:13;;;;;;;2.17;1.10;;;;;;;16.00;31.96;100629.47;3504108;28;20841;-71
2021/05/10 05:02:53;;;;;;;0.98;0.73;;;;;;;16.00;32.18;100632.16;3501441;28;20044;-71
2021/05/10 05:04:34;;;;;;;1.23;0.82;;;;;;;16.05;32.41;100640.41;3497578;28;20037;-71
2021/05/10 05:06:16;;;;;;;0.80;0.80;;;;;;;16.22;32.65;100634.63;3498233;28;20040;-71
2021/05/10 05:07:57;;;;;;;1.20;0.88;;;;;;;16.40;32.51;100647.44;3506417;28;20414;-71
2021/05/10 05:09:38;;;;;;;1.70;0.65;;;;;;;16.52;32.32;100652.00;3501663;28;20075;-70
2021/05/10 05:11:19;;;;;;;1.30;0.95;;;;;;;16.58;31.77;100642.25;3497907;28;20043;-70
2021/05/10 05:12:59;;;;;;;0.80;0.80;;;;;;;16.55;31.41;100635.41;3496460;28;20503;-70
2021/05/10 05:14:40;;;;;;;0.95;0.70;;;;;;;16.65;31.83;100639.50;3495851;28;20146;-70
2021/05/10 05:16:21;;;;;;;1.33;0.70;;;;;;;16.68;31.51;100633.72;3497281;28;20036;-70
2021/05/10 05:18:02;;;;;;;1.88;0.85;;;;;;;16.73;31.27;100636.63;3504746;28;20039;-70
2021/05/10 05:19:42;;;;;;;8.07;0.93;;;;;;;16.74;31.67;100638.25;3502506;28;20489;-70
2021/05/10 05:21:23;;;;;;;0.82;0.80;;;;;;;16.81;31.57;100628.34;3495987;28;20036;-71
2021/05/10 05:23:19;;;;;;;2.47;1.00;;;;;;;16.95;31.24;100635.31;3495696;28;20045;-70
2021/05/10 05:25:00;;;;;;;1.13;0.82;;;;;;;17.00;31.27;100632.81;3496197;28;20407;-71
2021/05/10 05:26:40;;;;;;;1.10;0.77;;;;;;;17.08;31.16;100639.81;3496879;28;20040;-71
2021/05/10 05:28:23;;;;;;;1.73;0.80;;;;;;;17.12;30.83;100629.47;3498123;28;20054;-71
2021/05/10 05:30:04;;;;;;;;;;;;;;;17.28;31.28;100639.72;3504590;28;20383;-70
2021/05/10 05:31:46;;;;;;;0.82;0.75;;;;;;;17.18;30.75;100644.75;3500593;28;19920;-71
2021/05/10 05:33:27;;;;;;;0.85;0.80;;;;;;;17.10;30.54;100647.69;3508898;28;20044;-71
2021/05/10 05:35:08;;;;;;;0.63;0.63;;;;;;;17.05;30.43;100640.25;3498135;28;20533;-70
2021/05/10 05:36:50;;;;;;;3.03;0.90;;;;;;;17.09;30.41;100648.72;3498770;28;20044;-71
2021/05/10 05:38:35;;;;;;;2.83;0.70;;;;;;;17.09;30.27;100638.78;3510076;28;20066;-70
2021/05/10 05:40:16;;;;;;;1.15;0.85;;;;;;;17.11;30.08;100643.94;3502117;28;20539;-70
2021/05/10 05:41:56;;;;;;;3.65;0.98;;;;;;;17.14;30.09;100643.50;3507888;28;20146;-70
2021/05/10 05:43:37;;;;;;;0.68;0.68;;;;;;;17.13;29.81;100648.09;3508665;28;20101;-71
2021/05/10 05:45:18;;;;;;;4.82;0.70;;;;;;;17.21;30.31;100649.72;3508715;28;20069;-71
2021/05/10 05:47:01;;;;;;;0.80;0.70;;;;;;;17.24;30.04;100649.28;3503473;28;20519;-71
2021/05/10 05:48:42;;;;;;;0.80;0.70;;;;;;;17.31;30.18;100655.47;3506795;28;20410;-70
2021/05/10 05:50:23;;;;;;;2.92;0.63;;;;;;;17.39;29.83;100643.59;3498017;28;20044;-72
2021/05/10 05:52:04;;;;;;;1.02;0.82;;;;;;;17.51;29.93;100643.75;3498750;28;20052;-70
2021/05/10 05:53:45;;;;;;;0.90;0.90;;;;;;;17.60;30.11;100643.25;3498518;28;20510;-70
2021/05/10 05:55:27;;;;;;;5.03;1.00;;;;;;;17.71;29.74;100654.38;3497451;28;20164;-70
2021/05/10 05:57:08;;;;;;;0.88;0.73;;;;;;;17.77;29.79;100654.34;3499981;28;20123;-69
2021/05/10 05:58:49;;;;;;;0.88;0.80;;;;;;;17.82;29.61;100659.13;3504733;28;20051;-71
2021/05/10 06:00:29;;;;;;;0.70;0.70;;;;;;;17.82;29.58;100646.47;3500434;28;20040;-70
2021/05/10 06:02:10;;;;;;;2.15;0.80;;;;;;;17.84;29.18;100657.06;3502692;28;20052;-72
2021/05/10 06:03:53;;;;;;;1.00;0.90;;;;;;;17.84;29.60;100648.97;3505863;28;20119;-72
2021/05/10 06:05:33;;;;;;;1.77;0.85;;;;;;;17.95;29.72;100655.53;3498902;28;20514;-72
2021/05/10 06:07:14;;;;;;;1.63;0.90;;;;;;;18.05;29.31;100656.66;3508357;28;20036;-71
2021/05/10 06:08:56;;;;;;;4.78;0.82;;;;;;;18.19;29.25;100662.78;3510571;28;20037;-71
2021/05/10 06:10:36;;;;;;;6.68;5.35;;;;;;;18.33;29.70;100654.56;3496928;28;20160;-70
2021/05/10 06:12:17;;;;;;;3.20;1.92;;;;;;;18.43;29.05;100652.19;3505206;28;20061;-71
2021/05/10 06:13:58;;;;;;;2.67;0.88;;;;;;;18.53;29.32;100649.78;3506189;28;20071;-71
2021/05/10 06:15:38;;;;;;;1.98;0.93;;;;;;;18.67;29.15;100656.72;3505496;28;20040;-70
2021/05/10 06:17:19;;;;;;;1.30;1.02;;;;;;;18.79;29.28;100648.72;3501636;28;20033;-71
2021/05/10 06:19:00;;;;;;;0.77;0.73;;;;;;;18.96;29.31;100659.75;3499564;28;20040;-71
2021/05/10 06:20:41;;;;;;;1.55;1.00;;;;;;;19.08;28.61;100668.75;3509528;28;20036;-71
2021/05/10 06:22:22;;;;;;;3.83;1.00;;;;;;;19.16;28.50;100659.50;3509297;28;20032;-70
2021/05/10 06:24:03;;;;;;;3.83;0.77;;;;;;;19.31;28.60;100675.31;3498484;28;20594;-71
2021/05/10 06:25:44;;;;;;;1.83;0.60;;;;;;;19.48;28.67;100670.09;3507233;28;20039;-70
2021/05/10 06:27:25;;;;;;;2.40;0.87;;;;;;;19.62;28.40;100668.88;3499343;28;20028;-71
2021/05/10 06:29:06;;;;;;;4.18;1.00;;;;;;;19.72;28.36;100665.63;3498176;28;20067;-71
2021/05/10 06:30:47;;;;;;;2.55;1.02;;;;;;;19.80;27.78;100663.44;3498584;28;20052;-72
2021/05/10 06:32:28;;;;;;;2.28;0.77;;;;;;;19.89;28.10;100663.91;3520478;28;20123;-72
2021/05/10 06:34:08;;;;;;;2.87;0.90;;;;;;;20.00;27.77;100667.69;3524371;28;20035;-70
2021/05/10 06:35:50;;;;;;;1.10;0.80;;;;;;;20.14;27.82;100669.13;3509620;28;20049;-72
2021/05/10 06:37:30;;;;;;;1.30;1.00;;;;;;;20.24;27.76;100668.56;3507459;28;20066;-71
2021/05/10 06:39:11;;;;;;;0.70;0.70;;;;;;;20.40;28.02;100665.16;3504646;28;20522;-72
2021/05/10 06:40:52;;;;;;;1.00;0.90;;;;;;;20.60;28.30;100666.69;3509237;28;20040;-72
2021/05/10 06:42:32;;;;;;;1.00;0.80;;;;;;;20.79;28.01;100670.09;3495678;28;20071;-71
2021/05/10 06:44:13;;;;;;;17.67;1.00;;;;;;;20.88;27.68;100658.66;3497157;28;20052;-72
2021/05/10 06:45:54;;;;;;;1.80;1.13;;;;;;;21.08;28.20;100655.53;3508092;28;20040;-71
2021/05/10 06:47:39;;;;;;;2.17;1.17;;;;;;;21.27;27.59;100658.91;3506827;28;20040;-72
2021/05/10 06:49:20;;;;;;;12.20;1.00;;;;;;;21.44;27.73;100667.09;3498973;28;20032;-73
2021/05/10 06:51:01;;;;;;;1.57;0.80;;;;;;;21.51;27.22;100656.13;3497836;28;20088;-72
2021/05/10 06:52:41;;;;;;;0.70;0.63;;;;;;;21.58;27.06;100655.94;3497757;28;20131;-73
2021/05/10 06:54:22;;;;;;;4.03;0.80;;;;;;;21.59;27.12;100653.00;3497762;28;20048;-73
2021/05/10 06:56:03;;;;;;;5.97;1.10;;;;;;;21.70;27.23;100654.00;3504795;28;20096;-72
2021/05/10 08:19:09;;;;;;;3.03;1.15;;;;;;;26.17;24.03;100653.00;3985918;24;20016;-73
2021/05/10 08:20:56;;;;;;;2.88;1.70;;;;;;;26.21;23.57;100661.47;3329850;29;20058;-69
2021/05/10 08:22:37;;;;;;;5.00;1.60;;;;;;;26.25;23.96;100660.63;3335954;29;20048;-73
2021/05/10 08:24:18;;;;;;;3.65;1.35;;;;;;;26.27;24.17;100657.63;3334083;29;20409;-71
2021/05/10 08:25:59;;;;;;;1.30;0.93;;;;;;;26.35;23.84;100659.00;3331789;29;20121;-69
2021/05/10 08:27:40;;;;;;;4.63;2.67;;;;;;;26.42;23.66;100654.88;3336264;29;20034;-71
2021/05/10 08:29:22;;;;;;;4.30;1.60;;;;;;;26.48;23.85;100653.75;3331493;29;20046;-71
2021/05/10 08:31:03;;;;;;;6.30;2.22;;;;;;;26.58;24.12;100657.59;3324751;29;20046;-71
2021/05/10 08:32:43;;;;;;;1.87;1.40;;;;;;;26.71;24.22;100657.00;3324909;29;20052;-71
2021/05/10 08:34:25;;;;;;;3.07;1.37;;;;;;;26.87;24.32;100666.78;3325463;29;20034;-71
2021/05/10 08:36:06;;;;;;;1.33;1.10;;;;;;;27.05;24.31;100665.34;3325174;29;20556;-71
2021/05/10 08:37:46;;;;;;;2.37;1.43;;;;;;;27.21;23.88;100663.41;3336368;29;20066;-72
2021/05/10 08:39:27;;;;;;;2.87;1.30;;;;;;;27.34;23.60;100654.59;3327259;29;20194;-70
2021/05/10 08:41:08;;;;;;;1.57;1.10;;;;;;;27.40;24.04;100669.88;3324010;29;20042;-71
2021/05/10 08:42:48;;;;;;;3.30;1.97;;;;;;;27.40;24.00;100663.56;3324665;29;20050;-70
2021/05/10 08:44:29;;;;;;;1.77;1.40;;;;;;;27.43;23.80;100675.88;3324852;29;20178;-70
2021/05/10 08:46:10;;;;;;;3.17;1.20;;;;;;;27.47;23.55;100682.41;3311847;29;20304;-71
2021/05/10 08:47:51;;;;;;;5.00;2.00;;;;;;;27.55;23.19;100670.88;3316805;29;20834;-71
2021/05/10 08:49:32;;;;;;;1.17;1.08;;;;;;;27.68;23.57;100664.75;3324132;29;20042;-72
2021/05/10 08:51:13;;;;;;;2.43;1.00;;;;;;;27.77;23.23;100676.72;3323112;29;20455;-71
2021/05/10 08:52:54;;;;;;;3.47;1.00;;;;;;;27.86;23.35;100676.19;3322867;29;20046;-72
2021/05/10 08:54:37;;;;;;;2.13;1.27;;;;;;;27.82;22.99;100670.44;3323827;29;20506;-70
2021/05/10 08:56:18;;;;;;;2.83;1.50;;;;;;;27.70;23.04;100667.19;3323965;29;20042;-73
2021/05/10 08:57:59;;;;;;;4.82;1.38;;;;;;;27.65;22.65;100669.97;3321918;29;20050;-72
2021/05/10 08:59:43;;;;;;;2.10;1.23;;;;;;;27.64;22.94;100674.63;3323229;29;20089;-71
2021/05/10 09:01:23;;;;;;;1.17;1.08;;;;;;;27.67;22.55;100668.59;3324355;29;20046;-72
2021/05/10 09:03:12;;;;;;;3.53;1.60;;;;;;;27.69;22.58;100674.59;3327063;29;20451;-71
2021/05/10 09:04:53;;;;;;;4.20;1.83;;;;;;;27.71;22.35;100669.66;3325910;29;20050;-71
2021/05/10 09:06:33;;;;;;;4.97;1.13;;;;;;;27.74;22.57;100674.56;3326643;29;20046;-72
2021/05/10 09:08:14;;;;;;;1.47;1.30;;;;;;;27.75;22.57;100672.63;3327243;29;20046;-71
2021/05/10 09:09:58;;;;;;;3.60;1.70;;;;;;;27.83;22.71;100678.38;3326368;29;20145;-72
2021/05/10 09:11:53;;;;;;;2.65;1.20;;;;;;;27.97;22.49;100685.94;3325557;29;20050;-72
2021/05/10 09:13:36;;;;;;;1.02;0.88;;;;;;;28.01;22.60;100684.25;3325485;29;20451;-71
2021/05/10 09:15:33;;;;;;;2.53;1.33;;;;;;;28.11;22.37;100673.19;3323246;29;20105;-71
2021/05/10 09:17:15;;;;;;;2.20;1.60;;;;;;;28.21;22.50;100673.09;3325500;29;20074;-69
2021/05/10 09:19:00;;;;;;;10.60;1.85;;;;;;;28.30;21.82;100665.09;3323897;29;20057;-71
2021/05/10 09:20:42;;;;;;;3.95;1.20;;;;;;;28.28;22.50;100668.09;3326579;29;20089;-72